Roxbury Flat, Vermont
Current Conditions -  °F | °C
As of 10:01 PM on Sunday 28 Dec 2014 (Local Time) from KMPV Reporting Station
Overcast Overcast  
Wind Chill: 19°   Ceiling: 3300
Heat Index: 30°   Visibility: 10mi
Dew Point: 19°   Wind: 15mph
Humidity: 64%   Direction: 310°NW
Pressure: 29.98"   Gusts: 24mph
Location:  44.0701°N, 72.7276°W
Report Text: KMPV 290301Z AUTO 31013G21KT 10SM BKN033 OVC041 M01/M07 A2998 RMK AO2 T10111072 $
Loading
Personal Weather Stations






























Interactive Weather Map New forecast layout! Learn more

10-Day Weather Forecast

Advertisements
Track Severe Weather on mobile